Terminal Aerodrome Forecast
Issued by NWS

Home | Current Version | Previous Version | Text Only | Print | Product List | Glossary Off
Versions: 1 2 3 4 5 6 7 8 9 10 11 12 13 14 15 16 17 18 19

118
FTUS41 KCLE 191613 AAA
TAFFDY
TAF AMD
KFDY 191613Z 1916/2012 22007KT P6SM OVC007
     FM191800 16005KT P6SM BKN100 OVC250
     FM192300 10005KT P6SM OVC100
     FM200600 08005KT 6SM -RA OVC040
     FM200800 08007KT 3SM -RA BR OVC007=

USA.gov is the U.S. government's official web portal to all federal, state and local government web resources and services.